Pointe-Lebel, Canada
Current Conditions -  °F | °C
As of 6:00 PM on Wednesday 22 Oct 2014 (Local Time) from CYBC Reporting Station
Clear Clear  
Wind Chill: 33°   Ceiling: Unl
Heat Index: 39°   Visibility: 9mi
Dew Point: 34°   Wind: 9mph
Humidity: 81%   Direction: 100°E
Pressure: 30.47"   Gusts: NA
Location:  49.15°N, 68.2°W
Report Text: CYBC 222200Z AUTO 10008KT 9SM CLR 04/01 A3047 RMK SLP318
Loading
Personal Weather Stations






























Interactive Weather Map
Tropical Storm Tracking
New forecast layout! Learn more

10-Day Weather Forecast

Advertisements
Track Severe Weather on mobile